Terminal Aerodrome Forecast
Issued by NWS

Home | Current Version | Previous Version | Text Only | Print | Product List | Glossary On
Versions: 1 2 3 4 5 6 7 8 9 10 11 12 13 14 15 16 17 18 19 20 21 22 23 24 25 26 27 28 29 30 31 32 33 34 35 36
000
FTUS46 KOTX 281735
TAFSFF
TAF
KSFF 281735Z 2818/2918 24004KT 5SM BR OVC004
     FM281900 00000KT 6SM BR BKN009
     FM282100 VRB03KT P6SM SCT015 BKN035
     FM290300 06006KT 4SM -SN SCT015 OVC022
     FM290700 06012G18KT P6SM VCSH OVC030
     FM291400 06013KT P6SM BKN050=

USA.gov is the U.S. government's official web portal to all federal, state and local government web resources and services.